Terminal Aerodrome Forecast
Issued by NWS

Home | Current Version | Previous Version | Text Only | Print | Product List | Glossary On
Versions: 1 2 3 4 5 6 7 8 9 10 11 12 13 14 15 16 17 18 19 20 21 22 23 24 25 26 27 28 29
000
FTUS41 KOKX 250322 AAA
TAFGON
TAF AMD
KGON 250322Z 2503/2524 07010KT P6SM -RA BKN070
      TEMPO 2507/2509 SCT015 BKN030
     FM250900 06015KT 5SM -RA BR SCT007 BKN015
     FM251100 05017G22KT 3SM -RA BR BKN007 OVC010
     FM251600 07018G24KT 1SM -RA BR OVC004=

USA.gov is the U.S. government's official web portal to all federal, state and local government web resources and services.